createdAt,value
2018-11-23T00:13:52.960Z,73.9
2018-11-23T00:29:04.906Z,74.7
2018-11-23T00:44:17.163Z,74.5
2018-11-23T00:59:29.368Z,75.2
2018-11-23T01:14:41.708Z,76.1
2018-11-23T01:29:53.880Z,76.3
2018-11-23T01:45:05.860Z,77
2018-11-23T02:00:15.507Z,76.6
2018-11-23T02:15:30.294Z,77.8
2018-11-23T02:30:42.563Z,77.5
2018-11-23T02:45:54.645Z,78.3
2018-11-23T03:00:58.676Z,79
2018-11-23T03:16:21.347Z,79.6
2018-11-23T03:31:31.241Z,79.7
2018-11-23T03:46:43.820Z,79.2
2018-11-23T04:01:56.176Z,79.8
2018-11-23T04:17:08.090Z,79.9
2018-11-23T04:32:20.446Z,79.5
2018-11-23T04:47:32.570Z,80.1
2018-11-23T05:02:44.808Z,81.2
2018-11-23T05:17:51.382Z,81
2018-11-23T05:33:09.486Z,81.7
2018-11-23T05:48:27.105Z,81.9
2018-11-23T06:03:33.802Z,82.2
2018-11-23T06:18:46.029Z,81.7
2018-11-23T06:33:58.355Z,82.1
2018-11-23T06:49:10.650Z,83
2018-11-23T07:04:23.020Z,81.7
2018-11-23T07:19:35.392Z,81.8
2018-11-23T07:34:44.521Z,81
2018-11-23T07:50:00.452Z,80
2018-11-23T08:05:12.976Z,80
2018-11-23T08:20:25.426Z,80.2
2018-11-23T08:35:28.593Z,79.3
2018-11-23T08:50:50.786Z,77.5
2018-11-23T09:06:03.548Z,76.2
2018-11-23T09:21:16.393Z,74.6
2018-11-23T09:36:29.483Z,72.4
2018-11-23T09:51:40.300Z,70.6
2018-11-23T10:06:55.812Z,68.5
2018-11-23T10:22:09.477Z,65
2018-11-23T10:37:23.524Z,59.5
2018-11-23T10:52:26.195Z,57
2018-11-23T11:07:53.294Z,45.8
2018-11-23T11:23:12.702Z,42.6
2018-11-23T11:38:26.764Z,46.2
2018-11-23T11:53:42.169Z,43
2018-11-23T12:08:57.820Z,41.1
2018-11-23T12:24:09.606Z,37.8
2018-11-23T12:39:33.011Z,32.9
2018-11-23T12:54:52.075Z,32.8
2018-11-23T13:10:10.638Z,33.6
2018-11-23T13:25:28.914Z,35.2
2018-11-23T13:40:46.325Z,37
2018-11-23T13:55:52.200Z,38.3
2018-11-23T14:11:19.793Z,41.8
2018-11-23T14:26:34.898Z,46.6
2018-11-23T14:41:49.551Z,49.5
2018-11-23T14:57:03.981Z,55.2
2018-11-23T15:12:16.714Z,59.9
2018-11-23T15:27:30.057Z,61.5
2018-11-23T15:42:42.839Z,63.3
2018-11-23T15:57:57.268Z,65.2
2018-11-23T16:13:11.721Z,66
2018-11-23T16:28:14.722Z,67.6
2018-11-23T16:43:32.472Z,69.1
2018-11-23T16:58:44.723Z,70.2
2018-11-23T17:13:57.015Z,71.1
2018-11-23T17:29:09.225Z,71.5
2018-11-23T17:44:21.248Z,72.7
2018-11-23T17:59:33.448Z,74.2
2018-11-23T18:14:45.266Z,75.2
2018-11-23T18:29:58.092Z,78.6
2018-11-23T18:45:06.003Z,74.2
2018-11-23T19:00:22.345Z,74.3
2018-11-23T19:15:34.456Z,74.9
2018-11-23T19:30:46.527Z,76.1
2018-11-23T19:45:58.566Z,76.8
2018-11-23T20:01:10.526Z,76.9
2018-11-23T20:16:22.567Z,77.5
2018-11-23T20:31:34.863Z,77.5
2018-11-23T20:46:46.462Z,77.5
2018-11-23T21:01:56.479Z,77.8
2018-11-23T21:17:10.492Z,77.8
2018-11-23T21:32:22.554Z,77.5
2018-11-23T21:47:34.791Z,78.3
2018-11-23T22:02:38.699Z,78.4
2018-11-23T22:17:58.861Z,78.6
2018-11-23T22:33:10.996Z,78.5
2018-11-23T22:48:23.120Z,78.7
2018-11-23T23:03:35.492Z,78.9
2018-11-23T23:18:47.530Z,78.7
2018-11-23T23:34:00.303Z,77.8
2018-11-23T23:49:12.513Z,78.6
